sensor_id;sensor_type;location;lat;lon;timestamp;temperature;humidity
74081;SHT31;62438;52.228;6.864;2022-09-09T00:00:20;15.24;89.14
74081;SHT31;62438;52.228;6.864;2022-09-09T00:02:25;15.28;90.10
74081;SHT31;62438;52.228;6.864;2022-09-09T00:04:35;15.18;90.90
74081;SHT31;62438;52.228;6.864;2022-09-09T00:06:56;15.23;90.36
74081;SHT31;62438;52.228;6.864;2022-09-09T00:11:18;15.14;90.57
74081;SHT31;62438;52.228;6.864;2022-09-09T00:13:59;15.12;90.75
74081;SHT31;62438;52.228;6.864;2022-09-09T00:16:14;15.04;90.91
74081;SHT31;62438;52.228;6.864;2022-09-09T00:18:36;14.98;91.08
74081;SHT31;62438;52.228;6.864;2022-09-09T00:20:47;15.03;91.21
74081;SHT31;62438;52.228;6.864;2022-09-09T00:23:11;14.98;90.76
74081;SHT31;62438;52.228;6.864;2022-09-09T00:25:21;14.97;90.37
74081;SHT31;62438;52.228;6.864;2022-09-09T00:27:25;14.97;90.47
74081;SHT31;62438;52.228;6.864;2022-09-09T00:29:43;14.94;91.20
74081;SHT31;62438;52.228;6.864;2022-09-09T00:31:44;14.90;90.60
74081;SHT31;62438;52.228;6.864;2022-09-09T00:33:46;14.87;90.61
74081;SHT31;62438;52.228;6.864;2022-09-09T00:35:58;14.89;90.55
74081;SHT31;62438;52.228;6.864;2022-09-09T00:38:15;14.87;90.70
74081;SHT31;62438;52.228;6.864;2022-09-09T00:40:23;14.87;91.00
74081;SHT31;62438;52.228;6.864;2022-09-09T00:42:25;14.79;91.36
74081;SHT31;62438;52.228;6.864;2022-09-09T00:44:34;14.75;90.99
74081;SHT31;62438;52.228;6.864;2022-09-09T00:49:27;14.65;91.41
74081;SHT31;62438;52.228;6.864;2022-09-09T00:54:06;14.50;92.33
74081;SHT31;62438;52.228;6.864;2022-09-09T00:56:20;14.45;92.49
74081;SHT31;62438;52.228;6.864;2022-09-09T00:58:21;14.39;93.14
74081;SHT31;62438;52.228;6.864;2022-09-09T01:00:27;14.38;92.64
74081;SHT31;62438;52.228;6.864;2022-09-09T01:04:34;14.39;92.72
74081;SHT31;62438;52.228;6.864;2022-09-09T01:06:37;14.35;93.05
74081;SHT31;62438;52.228;6.864;2022-09-09T01:11:21;14.22;93.28
74081;SHT31;62438;52.228;6.864;2022-09-09T01:13:34;14.19;93.50
74081;SHT31;62438;52.228;6.864;2022-09-09T01:15:36;14.15;93.42
74081;SHT31;62438;52.228;6.864;2022-09-09T01:17:48;14.15;93.67
74081;SHT31;62438;52.228;6.864;2022-09-09T01:27:06;14.02;93.76
74081;SHT31;62438;52.228;6.864;2022-09-09T01:29:10;13.97;94.10
74081;SHT31;62438;52.228;6.864;2022-09-09T01:31:15;13.90;94.31
74081;SHT31;62438;52.228;6.864;2022-09-09T01:33:18;13.91;94.62
74081;SHT31;62438;52.228;6.864;2022-09-09T01:35:40;13.88;94.36
74081;SHT31;62438;52.228;6.864;2022-09-09T01:37:43;13.84;94.63
74081;SHT31;62438;52.228;6.864;2022-09-09T01:39:44;13.84;94.89
74081;SHT31;62438;52.228;6.864;2022-09-09T01:41:45;13.85;94.86
74081;SHT31;62438;52.228;6.864;2022-09-09T01:43:45;13.82;94.97
74081;SHT31;62438;52.228;6.864;2022-09-09T01:45:46;13.81;94.87
74081;SHT31;62438;52.228;6.864;2022-09-09T01:47:50;13.84;95.08
74081;SHT31;62438;52.228;6.864;2022-09-09T01:49:51;13.77;94.99
74081;SHT31;62438;52.228;6.864;2022-09-09T01:51:54;13.78;94.96
74081;SHT31;62438;52.228;6.864;2022-09-09T01:53:55;13.75;95.43
74081;SHT31;62438;52.228;6.864;2022-09-09T02:00:18;13.74;95.29
74081;SHT31;62438;52.228;6.864;2022-09-09T02:04:49;13.77;95.06
74081;SHT31;62438;52.228;6.864;2022-09-09T02:06:53;13.75;95.06
74081;SHT31;62438;52.228;6.864;2022-09-09T02:08:56;13.73;95.32
74081;SHT31;62438;52.228;6.864;2022-09-09T02:11:13;13.74;94.99
74081;SHT31;62438;52.228;6.864;2022-09-09T02:13:15;13.73;95.07
74081;SHT31;62438;52.228;6.864;2022-09-09T02:17:29;13.63;95.23
74081;SHT31;62438;52.228;6.864;2022-09-09T02:19:37;13.60;95.37
74081;SHT31;62438;52.228;6.864;2022-09-09T02:21:41;13.61;95.30
74081;SHT31;62438;52.228;6.864;2022-09-09T02:23:43;13.59;95.14
74081;SHT31;62438;52.228;6.864;2022-09-09T02:25:48;13.60;95.24
74081;SHT31;62438;52.228;6.864;2022-09-09T02:27:52;13.59;95.14
74081;SHT31;62438;52.228;6.864;2022-09-09T02:29:53;13.57;95.26
74081;SHT31;62438;52.228;6.864;2022-09-09T02:31:57;13.49;95.37
74081;SHT31;62438;52.228;6.864;2022-09-09T02:34:00;13.42;95.52
74081;SHT31;62438;52.228;6.864;2022-09-09T02:36:02;13.43;95.57
74081;SHT31;62438;52.228;6.864;2022-09-09T02:38:07;13.33;95.73
74081;SHT31;62438;52.228;6.864;2022-09-09T02:40:11;13.35;95.96
74081;SHT31;62438;52.228;6.864;2022-09-09T02:42:12;13.33;96.05
74081;SHT31;62438;52.228;6.864;2022-09-09T02:44:17;13.35;95.91
74081;SHT31;62438;52.228;6.864;2022-09-09T02:49:03;13.24;96.09
74081;SHT31;62438;52.228;6.864;2022-09-09T02:51:11;13.20;96.10
74081;SHT31;62438;52.228;6.864;2022-09-09T02:53:24;13.22;96.13
74081;SHT31;62438;52.228;6.864;2022-09-09T02:56:05;13.15;96.16
74081;SHT31;62438;52.228;6.864;2022-09-09T02:57:57;13.16;96.29
74081;SHT31;62438;52.228;6.864;2022-09-09T03:00:00;13.16;96.29
74081;SHT31;62438;52.228;6.864;2022-09-09T03:02:01;13.15;96.17
74081;SHT31;62438;52.228;6.864;2022-09-09T03:04:03;13.16;96.10
74081;SHT31;62438;52.228;6.864;2022-09-09T03:06:05;13.19;95.91
74081;SHT31;62438;52.228;6.864;2022-09-09T03:08:06;13.22;95.85
74081;SHT31;62438;52.228;6.864;2022-09-09T03:10:06;13.18;95.73
74081;SHT31;62438;52.228;6.864;2022-09-09T03:12:08;13.20;96.00
74081;SHT31;62438;52.228;6.864;2022-09-09T03:14:08;13.20;95.93
74081;SHT31;62438;52.228;6.864;2022-09-09T03:16:11;13.19;95.80
74081;SHT31;62438;52.228;6.864;2022-09-09T03:18:11;13.16;95.87
74081;SHT31;62438;52.228;6.864;2022-09-09T03:20:12;13.12;96.04
74081;SHT31;62438;52.228;6.864;2022-09-09T03:22:12;13.16;96.02
74081;SHT31;62438;52.228;6.864;2022-09-09T03:24:13;13.15;95.98
74081;SHT31;62438;52.228;6.864;2022-09-09T03:26:14;13.19;96.01
74081;SHT31;62438;52.228;6.864;2022-09-09T03:28:15;13.22;95.80
74081;SHT31;62438;52.228;6.864;2022-09-09T03:30:15;13.27;95.71
74081;SHT31;62438;52.228;6.864;2022-09-09T03:32:16;13.20;95.58
74081;SHT31;62438;52.228;6.864;2022-09-09T03:34:17;13.27;95.47
74081;SHT31;62438;52.228;6.864;2022-09-09T03:36:18;13.30;95.45
74081;SHT31;62438;52.228;6.864;2022-09-09T03:38:18;13.27;95.68
74081;SHT31;62438;52.228;6.864;2022-09-09T03:40:18;13.26;95.40
74081;SHT31;62438;52.228;6.864;2022-09-09T03:42:20;13.22;95.72
74081;SHT31;62438;52.228;6.864;2022-09-09T03:44:21;13.23;95.82
74081;SHT31;62438;52.228;6.864;2022-09-09T03:46:23;13.18;95.80
74081;SHT31;62438;52.228;6.864;2022-09-09T03:48:24;13.18;95.83
74081;SHT31;62438;52.228;6.864;2022-09-09T03:50:27;13.13;96.00
74081;SHT31;62438;52.228;6.864;2022-09-09T03:52:27;13.09;96.16
74081;SHT31;62438;52.228;6.864;2022-09-09T03:54:28;13.13;96.15
74081;SHT31;62438;52.228;6.864;2022-09-09T03:56:28;13.05;96.10
74081;SHT31;62438;52.228;6.864;2022-09-09T03:58:28;12.99;96.26
74081;SHT31;62438;52.228;6.864;2022-09-09T04:00:32;13.02;96.50
74081;SHT31;62438;52.228;6.864;2022-09-09T04:02:32;13.01;96.49
74081;SHT31;62438;52.228;6.864;2022-09-09T04:04:33;13.02;96.62
74081;SHT31;62438;52.228;6.864;2022-09-09T04:06:33;13.02;96.64
74081;SHT31;62438;52.228;6.864;2022-09-09T04:08:34;13.05;96.51
74081;SHT31;62438;52.228;6.864;2022-09-09T04:10:35;13.09;96.47
74081;SHT31;62438;52.228;6.864;2022-09-09T04:12:39;13.15;96.27
74081;SHT31;62438;52.228;6.864;2022-09-09T04:14:39;13.18;96.17
74081;SHT31;62438;52.228;6.864;2022-09-09T04:16:39;13.13;96.30
74081;SHT31;62438;52.228;6.864;2022-09-09T04:18:44;13.16;96.34
74081;SHT31;62438;52.228;6.864;2022-09-09T04:20:48;13.13;96.42
74081;SHT31;62438;52.228;6.864;2022-09-09T04:22:49;13.18;96.62
74081;SHT31;62438;52.228;6.864;2022-09-09T04:24:49;13.16;96.48
74081;SHT31;62438;52.228;6.864;2022-09-09T04:26:50;13.13;96.48
74081;SHT31;62438;52.228;6.864;2022-09-09T04:28:50;13.12;96.53
74081;SHT31;62438;52.228;6.864;2022-09-09T04:30:50;13.16;96.54
74081;SHT31;62438;52.228;6.864;2022-09-09T04:32:52;13.18;96.47
74081;SHT31;62438;52.228;6.864;2022-09-09T04:34:52;13.26;96.57
74081;SHT31;62438;52.228;6.864;2022-09-09T04:36:53;13.33;96.38
74081;SHT31;62438;52.228;6.864;2022-09-09T04:38:53;13.43;96.18
74081;SHT31;62438;52.228;6.864;2022-09-09T04:40:54;13.52;95.90
74081;SHT31;62438;52.228;6.864;2022-09-09T04:42:55;13.53;95.91
74081;SHT31;62438;52.228;6.864;2022-09-09T04:44:55;13.61;95.80
74081;SHT31;62438;52.228;6.864;2022-09-09T04:46:56;13.69;95.72
74081;SHT31;62438;52.228;6.864;2022-09-09T04:48:56;13.78;95.19
74081;SHT31;62438;52.228;6.864;2022-09-09T04:51:02;13.80;95.20
74081;SHT31;62438;52.228;6.864;2022-09-09T04:53:05;13.88;95.11
74081;SHT31;62438;52.228;6.864;2022-09-09T04:55:06;13.92;94.66
74081;SHT31;62438;52.228;6.864;2022-09-09T04:57:06;13.95;94.64
74081;SHT31;62438;52.228;6.864;2022-09-09T04:59:07;13.95;94.49
74081;SHT31;62438;52.228;6.864;2022-09-09T05:01:19;13.98;94.82
74081;SHT31;62438;52.228;6.864;2022-09-09T05:03:21;14.00;94.78
74081;SHT31;62438;52.228;6.864;2022-09-09T05:05:21;14.04;94.85
74081;SHT31;62438;52.228;6.864;2022-09-09T05:07:22;14.05;94.45
74081;SHT31;62438;52.228;6.864;2022-09-09T05:09:22;14.07;94.39
74081;SHT31;62438;52.228;6.864;2022-09-09T05:11:28;14.08;94.54
74081;SHT31;62438;52.228;6.864;2022-09-09T05:13:30;14.11;94.46
74081;SHT31;62438;52.228;6.864;2022-09-09T05:15:32;14.11;94.38
74081;SHT31;62438;52.228;6.864;2022-09-09T05:17:32;14.14;94.57
74081;SHT31;62438;52.228;6.864;2022-09-09T05:19:33;14.17;94.71
74081;SHT31;62438;52.228;6.864;2022-09-09T05:21:34;14.12;94.69
74081;SHT31;62438;52.228;6.864;2022-09-09T05:23:35;14.18;94.36
74081;SHT31;62438;52.228;6.864;2022-09-09T05:25:35;14.17;94.54
74081;SHT31;62438;52.228;6.864;2022-09-09T05:27:36;14.25;94.14
74081;SHT31;62438;52.228;6.864;2022-09-09T05:29:38;14.28;94.34
74081;SHT31;62438;52.228;6.864;2022-09-09T05:31:38;14.31;94.12
74081;SHT31;62438;52.228;6.864;2022-09-09T05:33:41;14.33;94.07
74081;SHT31;62438;52.228;6.864;2022-09-09T05:35:43;14.32;94.00
74081;SHT31;62438;52.228;6.864;2022-09-09T05:37:43;14.36;94.08
74081;SHT31;62438;52.228;6.864;2022-09-09T05:39:44;14.38;94.29
74081;SHT31;62438;52.228;6.864;2022-09-09T05:41:44;14.40;94.09
74081;SHT31;62438;52.228;6.864;2022-09-09T05:43:45;14.43;93.91
74081;SHT31;62438;52.228;6.864;2022-09-09T05:45:47;14.43;94.12
74081;SHT31;62438;52.228;6.864;2022-09-09T05:47:51;14.48;93.70
74081;SHT31;62438;52.228;6.864;2022-09-09T05:49:54;14.52;93.89
74081;SHT31;62438;52.228;6.864;2022-09-09T05:51:55;14.60;93.68
74081;SHT31;62438;52.228;6.864;2022-09-09T05:53:55;14.63;93.61
74081;SHT31;62438;52.228;6.864;2022-09-09T05:56:07;14.65;93.55
74081;SHT31;62438;52.228;6.864;2022-09-09T05:58:10;14.70;93.05
74081;SHT31;62438;52.228;6.864;2022-09-09T06:00:11;14.72;92.97
74081;SHT31;62438;52.228;6.864;2022-09-09T06:02:13;14.69;93.02
74081;SHT31;62438;52.228;6.864;2022-09-09T06:04:13;14.73;93.23
74081;SHT31;62438;52.228;6.864;2022-09-09T06:06:16;14.76;92.76
74081;SHT31;62438;52.228;6.864;2022-09-09T06:08:17;14.79;93.20
74081;SHT31;62438;52.228;6.864;2022-09-09T06:10:18;14.80;93.42
74081;SHT31;62438;52.228;6.864;2022-09-09T06:12:19;14.84;92.99
74081;SHT31;62438;52.228;6.864;2022-09-09T06:14:20;14.81;93.13
74081;SHT31;62438;52.228;6.864;2022-09-09T06:16:25;14.93;93.03
74081;SHT31;62438;52.228;6.864;2022-09-09T06:18:26;14.97;92.78
74081;SHT31;62438;52.228;6.864;2022-09-09T06:20:26;14.96;92.66
74081;SHT31;62438;52.228;6.864;2022-09-09T06:22:30;15.01;92.64
74081;SHT31;62438;52.228;6.864;2022-09-09T06:24:30;15.01;92.17
74081;SHT31;62438;52.228;6.864;2022-09-09T06:26:36;15.07;92.51
74081;SHT31;62438;52.228;6.864;2022-09-09T06:28:38;15.10;92.27
74081;SHT31;62438;52.228;6.864;2022-09-09T06:30:38;15.17;92.34
74081;SHT31;62438;52.228;6.864;2022-09-09T06:32:40;15.23;92.58
74081;SHT31;62438;52.228;6.864;2022-09-09T06:34:40;15.26;91.83
74081;SHT31;62438;52.228;6.864;2022-09-09T06:36:41;15.27;92.31
74081;SHT31;62438;52.228;6.864;2022-09-09T06:38:42;15.31;91.95
74081;SHT31;62438;52.228;6.864;2022-09-09T06:40:42;15.37;91.75
74081;SHT31;62438;52.228;6.864;2022-09-09T06:42:44;15.41;91.71
74081;SHT31;62438;52.228;6.864;2022-09-09T06:44:44;15.47;91.92
74081;SHT31;62438;52.228;6.864;2022-09-09T06:46:45;15.51;91.53
74081;SHT31;62438;52.228;6.864;2022-09-09T06:48:48;15.54;91.57
74081;SHT31;62438;52.228;6.864;2022-09-09T06:50:49;15.56;91.63
74081;SHT31;62438;52.228;6.864;2022-09-09T06:52:52;15.56;91.19
74081;SHT31;62438;52.228;6.864;2022-09-09T06:54:52;15.63;90.89
74081;SHT31;62438;52.228;6.864;2022-09-09T06:56:53;15.73;90.80
74081;SHT31;62438;52.228;6.864;2022-09-09T06:58:56;15.69;91.11
74081;SHT31;62438;52.228;6.864;2022-09-09T07:01:06;15.76;90.26
74081;SHT31;62438;52.228;6.864;2022-09-09T07:03:07;15.76;90.53
74081;SHT31;62438;52.228;6.864;2022-09-09T07:05:08;15.79;90.70
74081;SHT31;62438;52.228;6.864;2022-09-09T07:07:08;15.81;90.75
74081;SHT31;62438;52.228;6.864;2022-09-09T07:09:14;15.92;90.68
74081;SHT31;62438;52.228;6.864;2022-09-09T07:11:15;15.97;90.18
74081;SHT31;62438;52.228;6.864;2022-09-09T07:13:16;16.05;89.98
74081;SHT31;62438;52.228;6.864;2022-09-09T07:15:16;16.10;88.99
74081;SHT31;62438;52.228;6.864;2022-09-09T07:17:18;16.21;89.03
74081;SHT31;62438;52.228;6.864;2022-09-09T07:19:19;16.30;88.73
74081;SHT31;62438;52.228;6.864;2022-09-09T07:21:20;16.43;88.43
74081;SHT31;62438;52.228;6.864;2022-09-09T07:23:21;16.51;88.11
74081;SHT31;62438;52.228;6.864;2022-09-09T07:25:22;16.51;87.60
74081;SHT31;62438;52.228;6.864;2022-09-09T07:27:22;16.60;88.76
74081;SHT31;62438;52.228;6.864;2022-09-09T07:29:23;16.61;87.98
74081;SHT31;62438;52.228;6.864;2022-09-09T07:31:31;16.72;87.58
74081;SHT31;62438;52.228;6.864;2022-09-09T07:33:34;16.91;87.25
74081;SHT31;62438;52.228;6.864;2022-09-09T07:35:35;17.01;85.63
74081;SHT31;62438;52.228;6.864;2022-09-09T07:37:37;17.11;85.89
74081;SHT31;62438;52.228;6.864;2022-09-09T07:39:38;17.12;84.96
74081;SHT31;62438;52.228;6.864;2022-09-09T07:41:41;17.13;85.41
74081;SHT31;62438;52.228;6.864;2022-09-09T07:43:46;17.22;85.30
74081;SHT31;62438;52.228;6.864;2022-09-09T07:45:47;17.13;86.20
74081;SHT31;62438;52.228;6.864;2022-09-09T07:47:50;17.11;84.75
74081;SHT31;62438;52.228;6.864;2022-09-09T07:49:50;17.01;85.36
74081;SHT31;62438;52.228;6.864;2022-09-09T07:51:50;16.93;85.94
74081;SHT31;62438;52.228;6.864;2022-09-09T07:53:54;16.91;85.93
74081;SHT31;62438;52.228;6.864;2022-09-09T07:55:54;16.86;86.00
74081;SHT31;62438;52.228;6.864;2022-09-09T07:57:55;16.85;85.91
74081;SHT31;62438;52.228;6.864;2022-09-09T07:59:56;16.99;85.28
74081;SHT31;62438;52.228;6.864;2022-09-09T08:01:57;17.19;85.54
74081;SHT31;62438;52.228;6.864;2022-09-09T08:04:01;17.29;85.48
74081;SHT31;62438;52.228;6.864;2022-09-09T08:06:07;17.34;83.73
74081;SHT31;62438;52.228;6.864;2022-09-09T08:08:08;17.46;83.61
74081;SHT31;62438;52.228;6.864;2022-09-09T08:10:09;17.54;83.49
74081;SHT31;62438;52.228;6.864;2022-09-09T08:12:09;17.59;83.76
74081;SHT31;62438;52.228;6.864;2022-09-09T08:14:11;17.70;82.03
74081;SHT31;62438;52.228;6.864;2022-09-09T08:16:14;17.87;82.65
74081;SHT31;62438;52.228;6.864;2022-09-09T08:18:15;17.81;82.09
74081;SHT31;62438;52.228;6.864;2022-09-09T08:20:15;17.73;81.90
74081;SHT31;62438;52.228;6.864;2022-09-09T08:22:16;17.74;82.23
74081;SHT31;62438;52.228;6.864;2022-09-09T08:24:16;17.77;82.43
74081;SHT31;62438;52.228;6.864;2022-09-09T08:26:21;17.78;83.03
74081;SHT31;62438;52.228;6.864;2022-09-09T08:28:22;17.64;81.94
74081;SHT31;62438;52.228;6.864;2022-09-09T08:30:22;17.67;82.03
74081;SHT31;62438;52.228;6.864;2022-09-09T08:32:23;17.66;81.40
74081;SHT31;62438;52.228;6.864;2022-09-09T08:34:24;17.59;81.84
74081;SHT31;62438;52.228;6.864;2022-09-09T08:36:28;17.61;81.44
74081;SHT31;62438;52.228;6.864;2022-09-09T08:38:29;17.70;81.34
74081;SHT31;62438;52.228;6.864;2022-09-09T08:40:39;17.97;80.91
74081;SHT31;62438;52.228;6.864;2022-09-09T08:42:50;18.28;79.90
74081;SHT31;62438;52.228;6.864;2022-09-09T08:51:19;18.25;78.33
74081;SHT31;62438;52.228;6.864;2022-09-09T08:53:26;18.11;79.83
74081;SHT31;62438;52.228;6.864;2022-09-09T08:57:47;18.13;79.62
74081;SHT31;62438;52.228;6.864;2022-09-09T08:59:50;18.02;78.61
74081;SHT31;62438;52.228;6.864;2022-09-09T09:07:10;18.50;76.11
74081;SHT31;62438;52.228;6.864;2022-09-09T09:11:25;18.67;75.81
74081;SHT31;62438;52.228;6.864;2022-09-09T09:15:37;18.78;75.67
74081;SHT31;62438;52.228;6.864;2022-09-09T09:17:38;19.11;74.18
74081;SHT31;62438;52.228;6.864;2022-09-09T09:19:39;19.28;73.11
74081;SHT31;62438;52.228;6.864;2022-09-09T09:21:48;19.45;72.92
74081;SHT31;62438;52.228;6.864;2022-09-09T09:23:59;19.17;71.37
74081;SHT31;62438;52.228;6.864;2022-09-09T09:26:00;19.15;71.16
74081;SHT31;62438;52.228;6.864;2022-09-09T09:28:10;18.88;72.24
74081;SHT31;62438;52.228;6.864;2022-09-09T09:30:16;18.94;71.86
74081;SHT31;62438;52.228;6.864;2022-09-09T09:32:19;19.10;71.55
74081;SHT31;62438;52.228;6.864;2022-09-09T09:34:21;19.44;71.42
74081;SHT31;62438;52.228;6.864;2022-09-09T09:36:37;19.32;70.35
74081;SHT31;62438;52.228;6.864;2022-09-09T09:38:38;19.59;70.26
74081;SHT31;62438;52.228;6.864;2022-09-09T09:40:51;19.87;69.81
74081;SHT31;62438;52.228;6.864;2022-09-09T09:43:00;19.94;68.84
74081;SHT31;62438;52.228;6.864;2022-09-09T09:45:15;19.90;67.54
74081;SHT31;62438;52.228;6.864;2022-09-09T09:47:21;20.12;68.36
74081;SHT31;62438;52.228;6.864;2022-09-09T09:49:22;20.33;68.65
74081;SHT31;62438;52.228;6.864;2022-09-09T09:51:23;20.55;67.81
74081;SHT31;62438;52.228;6.864;2022-09-09T09:53:26;20.25;66.85
74081;SHT31;62438;52.228;6.864;2022-09-09T09:55:29;20.12;67.69
74081;SHT31;62438;52.228;6.864;2022-09-09T09:57:32;19.83;67.20
74081;SHT31;62438;52.228;6.864;2022-09-09T09:59:35;19.85;68.35
74081;SHT31;62438;52.228;6.864;2022-09-09T10:19:10;20.61;63.83
74081;SHT31;62438;52.228;6.864;2022-09-09T10:26:23;19.93;67.26
74081;SHT31;62438;52.228;6.864;2022-09-09T10:33:41;19.69;67.34
74081;SHT31;62438;52.228;6.864;2022-09-09T10:42:44;19.98;65.69
74081;SHT31;62438;52.228;6.864;2022-09-09T10:54:24;20.95;63.24
74081;SHT31;62438;52.228;6.864;2022-09-09T10:56:26;20.67;63.42
74081;SHT31;62438;52.228;6.864;2022-09-09T10:58:31;20.51;63.63
74081;SHT31;62438;52.228;6.864;2022-09-09T11:00:41;20.30;64.39
74081;SHT31;62438;52.228;6.864;2022-09-09T11:02:42;20.28;64.39
74081;SHT31;62438;52.228;6.864;2022-09-09T11:05:04;20.24;64.51
74081;SHT31;62438;52.228;6.864;2022-09-09T11:07:08;20.04;65.24
74081;SHT31;62438;52.228;6.864;2022-09-09T11:09:19;20.01;65.22
74081;SHT31;62438;52.228;6.864;2022-09-09T11:11:30;19.96;65.30
74081;SHT31;62438;52.228;6.864;2022-09-09T11:13:55;20.04;65.24
74081;SHT31;62438;52.228;6.864;2022-09-09T11:16:45;20.21;66.42
74081;SHT31;62438;52.228;6.864;2022-09-09T11:18:28;20.21;64.43
74081;SHT31;62438;52.228;6.864;2022-09-09T11:20:29;20.09;64.92
74081;SHT31;62438;52.228;6.864;2022-09-09T11:22:57;19.96;64.27
74081;SHT31;62438;52.228;6.864;2022-09-09T11:25:34;19.90;64.95
74081;SHT31;62438;52.228;6.864;2022-09-09T11:38:19;20.34;63.95
74081;SHT31;62438;52.228;6.864;2022-09-09T11:40:26;21.29;62.50
74081;SHT31;62438;52.228;6.864;2022-09-09T11:42:27;21.19;61.46
74081;SHT31;62438;52.228;6.864;2022-09-09T11:44:29;21.29;61.58
74081;SHT31;62438;52.228;6.864;2022-09-09T11:46:36;21.02;62.13
74081;SHT31;62438;52.228;6.864;2022-09-09T11:48:56;20.76;62.80
74081;SHT31;62438;52.228;6.864;2022-09-09T11:51:08;20.58;63.74
74081;SHT31;62438;52.228;6.864;2022-09-09T11:55:27;20.43;64.00
74081;SHT31;62438;52.228;6.864;2022-09-09T11:57:34;20.40;63.47
74081;SHT31;62438;52.228;6.864;2022-09-09T11:59:35;20.44;64.25
74081;SHT31;62438;52.228;6.864;2022-09-09T12:01:41;20.25;64.45
74081;SHT31;62438;52.228;6.864;2022-09-09T12:03:52;20.25;63.95
74081;SHT31;62438;52.228;6.864;2022-09-09T12:05:55;20.28;64.22
74081;SHT31;62438;52.228;6.864;2022-09-09T12:08:00;20.41;64.36
74081;SHT31;62438;52.228;6.864;2022-09-09T12:14:44;20.89;61.24
74081;SHT31;62438;52.228;6.864;2022-09-09T12:16:43;20.86;62.83
74081;SHT31;62438;52.228;6.864;2022-09-09T12:18:43;20.64;62.50
74081;SHT31;62438;52.228;6.864;2022-09-09T12:25:57;20.13;63.61
74081;SHT31;62438;52.228;6.864;2022-09-09T12:28:06;20.61;63.80
74081;SHT31;62438;52.228;6.864;2022-09-09T12:30:12;20.67;63.49
74081;SHT31;62438;52.228;6.864;2022-09-09T12:32:22;20.48;63.59
74081;SHT31;62438;52.228;6.864;2022-09-09T12:34:44;20.37;64.15
74081;SHT31;62438;52.228;6.864;2022-09-09T12:36:53;20.20;64.66
74081;SHT31;62438;52.228;6.864;2022-09-09T12:39:09;20.01;65.07
74081;SHT31;62438;52.228;6.864;2022-09-09T12:41:37;19.86;65.39
74081;SHT31;62438;52.228;6.864;2022-09-09T12:43:37;19.75;65.40
74081;SHT31;62438;52.228;6.864;2022-09-09T12:45:40;19.65;66.15
74081;SHT31;62438;52.228;6.864;2022-09-09T12:49:47;19.58;66.07
74081;SHT31;62438;52.228;6.864;2022-09-09T12:51:50;19.97;65.63
74081;SHT31;62438;52.228;6.864;2022-09-09T12:53:51;20.68;65.40
74081;SHT31;62438;52.228;6.864;2022-09-09T12:55:57;20.61;65.40
74081;SHT31;62438;52.228;6.864;2022-09-09T12:57:58;20.28;65.57
74081;SHT31;62438;52.228;6.864;2022-09-09T13:00:21;19.83;66.17
74081;SHT31;62438;52.228;6.864;2022-09-09T13:02:25;19.72;67.37
74081;SHT31;62438;52.228;6.864;2022-09-09T13:04:26;19.52;67.25
74081;SHT31;62438;52.228;6.864;2022-09-09T13:06:31;19.24;68.29
74081;SHT31;62438;52.228;6.864;2022-09-09T13:08:32;18.96;70.47
74081;SHT31;62438;52.228;6.864;2022-09-09T13:10:38;18.97;70.50
74081;SHT31;62438;52.228;6.864;2022-09-09T13:12:42;19.19;69.80
74081;SHT31;62438;52.228;6.864;2022-09-09T13:14:43;19.04;71.17
74081;SHT31;62438;52.228;6.864;2022-09-09T13:16:57;19.08;71.40
74081;SHT31;62438;52.228;6.864;2022-09-09T13:19:12;19.21;71.75
74081;SHT31;62438;52.228;6.864;2022-09-09T13:21:15;19.56;71.71
74081;SHT31;62438;52.228;6.864;2022-09-09T13:23:16;19.46;70.43
74081;SHT31;62438;52.228;6.864;2022-09-09T13:25:27;19.04;72.74
74081;SHT31;62438;52.228;6.864;2022-09-09T13:27:36;18.88;73.40
74081;SHT31;62438;52.228;6.864;2022-09-09T13:29:40;18.64;73.91
74081;SHT31;62438;52.228;6.864;2022-09-09T13:31:51;18.74;73.50
74081;SHT31;62438;52.228;6.864;2022-09-09T13:33:57;18.94;73.59
74081;SHT31;62438;52.228;6.864;2022-09-09T13:36:09;19.17;72.54
74081;SHT31;62438;52.228;6.864;2022-09-09T13:38:14;19.52;71.46
74081;SHT31;62438;52.228;6.864;2022-09-09T13:40:20;19.89;70.33
74081;SHT31;62438;52.228;6.864;2022-09-09T13:42:29;20.21;68.89
74081;SHT31;62438;52.228;6.864;2022-09-09T13:44:35;20.38;66.97
74081;SHT31;62438;52.228;6.864;2022-09-09T13:46:38;20.73;66.95
74081;SHT31;62438;52.228;6.864;2022-09-09T13:48:42;20.35;67.07
74081;SHT31;62438;52.228;6.864;2022-09-09T13:50:54;20.27;68.03
74081;SHT31;62438;52.228;6.864;2022-09-09T13:52:56;19.86;68.93
74081;SHT31;62438;52.228;6.864;2022-09-09T13:55:00;20.21;68.39
74081;SHT31;62438;52.228;6.864;2022-09-09T13:57:00;20.03;68.96
74081;SHT31;62438;52.228;6.864;2022-09-09T13:59:03;19.83;68.80
74081;SHT31;62438;52.228;6.864;2022-09-09T14:01:04;19.73;69.67
74081;SHT31;62438;52.228;6.864;2022-09-09T14:03:05;19.85;69.57
74081;SHT31;62438;52.228;6.864;2022-09-09T14:05:07;19.92;70.47
74081;SHT31;62438;52.228;6.864;2022-09-09T14:07:12;19.56;70.89
74081;SHT31;62438;52.228;6.864;2022-09-09T14:09:15;19.39;72.33
74081;SHT31;62438;52.228;6.864;2022-09-09T14:11:16;18.97;72.64
74081;SHT31;62438;52.228;6.864;2022-09-09T14:13:16;18.70;74.00
74081;SHT31;62438;52.228;6.864;2022-09-09T14:15:17;18.73;74.57
74081;SHT31;62438;52.228;6.864;2022-09-09T14:17:20;19.00;74.35
74081;SHT31;62438;52.228;6.864;2022-09-09T14:19:41;19.27;73.27
74081;SHT31;62438;52.228;6.864;2022-09-09T14:21:42;19.35;72.78
74081;SHT31;62438;52.228;6.864;2022-09-09T14:23:43;19.44;72.87
74081;SHT31;62438;52.228;6.864;2022-09-09T14:25:43;19.24;73.35
74081;SHT31;62438;52.228;6.864;2022-09-09T14:27:44;18.94;73.48
74081;SHT31;62438;52.228;6.864;2022-09-09T14:29:46;18.93;74.02
74081;SHT31;62438;52.228;6.864;2022-09-09T14:31:46;18.97;75.06
74081;SHT31;62438;52.228;6.864;2022-09-09T14:33:46;19.08;75.40
74081;SHT31;62438;52.228;6.864;2022-09-09T14:35:47;19.10;73.56
74081;SHT31;62438;52.228;6.864;2022-09-09T14:37:47;19.28;73.21
74081;SHT31;62438;52.228;6.864;2022-09-09T14:39:48;19.48;73.27
74081;SHT31;62438;52.228;6.864;2022-09-09T14:41:50;19.36;72.84
74081;SHT31;62438;52.228;6.864;2022-09-09T14:43:50;19.19;73.68
74081;SHT31;62438;52.228;6.864;2022-09-09T14:45:51;18.97;74.85
74081;SHT31;62438;52.228;6.864;2022-09-09T14:47:52;18.97;74.72
74081;SHT31;62438;52.228;6.864;2022-09-09T14:49:53;18.98;74.12
74081;SHT31;62438;52.228;6.864;2022-09-09T14:51:53;19.12;73.95
74081;SHT31;62438;52.228;6.864;2022-09-09T14:53:56;19.07;74.04
74081;SHT31;62438;52.228;6.864;2022-09-09T14:56:17;19.22;73.43
74081;SHT31;62438;52.228;6.864;2022-09-09T14:58:18;19.51;73.83
74081;SHT31;62438;52.228;6.864;2022-09-09T15:00:18;19.61;72.16
74081;SHT31;62438;52.228;6.864;2022-09-09T15:02:19;19.65;73.44